^^
Your Local Weather - Clay, NY Station Historical Data
Daily Summary for January 18, 2018 Units:  Metric    English   Both
« Previous Day
Next Day »
Daily Weekly Monthly Yearly Custom
  High: Low: Average:
Temperature: -5.9 °C -21.4 °C -11.7 °C
Dew Point: -8.6 °C -23.6 °C -14 °C
Humidity: 89% 80% 83%
Wind Speed: 9.7km/h 0km/h 2.7km/h
Wind Gust: 19.3km/h - -
Wind- - WSW
Pressure: 1020.2 hPa 1015.5 hPa -
Precipitation: 0 mm    
Historical Graphs
 
 
Tabular Data for January 18, 2018
Time Temperature Dew Point Pressure Wind Wind Speed Wind Gust Humidity Rainfall Rate (Hourly) solar
00:06 -16.9 °C -18.7 °C 1020.2 hPa Calm     86% 0 mm 0 W/m2
00:12 -17 °C -18.8 °C 1020.2 hPa Calm     86% 0 mm 0 W/m2
00:18 -17.1 °C -18.8 °C 1019.9 hPa Calm     86% 0 mm 0 W/m2
00:24 -17.2 °C -18.9 °C 1019.9 hPa Calm     86% 0 mm 0 W/m2
00:30 -17.2 °C -19 °C 1019.9 hPa Calm     86% 0 mm 0 W/m2
00:35 -17.3 °C -19.1 °C 1019.9 hPa Calm     86% 0 mm 0 W/m2
00:42 -17.3 °C -19.1 °C 1019.5 hPa Calm     86% 0 mm 0 W/m2
00:48 -17.4 °C -19.2 °C 1019.5 hPa Calm     86% 0 mm 0 W/m2
00:54 -17.4 °C -19.2 °C 1019.5 hPa Calm     86% 0 mm 0 W/m2
01:00 -17.6 °C -19.3 °C 1019.2 hPa Calm     86% 0 mm 0 W/m2
01:05 -17.6 °C -19.4 °C 1019.2 hPa Calm     86% 0 mm 0 W/m2
01:12 -17.7 °C -19.4 °C 1019.2 hPa Calm     86% 0 mm 0 W/m2
01:18 -17.8 °C -19.6 °C 1019.2 hPa Calm     86% 0 mm 0 W/m2
01:24 -17.8 °C -19.7 °C 1019.2 hPa Calm     85% 0 mm 0 W/m2
01:29 -17.9 °C -19.8 °C 1019.2 hPa Calm     85% 0 mm 0 W/m2
01:36 -17.9 °C -19.8 °C 1019.2 hPa Calm     85% 0 mm 0 W/m2
01:42 -18 °C -19.8 °C 1019.2 hPa Calm     86% 0 mm 0 W/m2
01:48 -18.1 °C -19.8 °C 1019.2 hPa Calm     86% 0 mm 0 W/m2
01:53 -18.1 °C -19.9 °C 1019.2 hPa Calm     86% 0 mm 0 W/m2
01:59 -18.1 °C -20 °C 1019.2 hPa Calm     85% 0 mm 0 W/m2
02:05 -18.2 °C -20.1 °C 1019.2 hPa Calm     85% 0 mm 0 W/m2
02:12 -18.3 °C -20.2 °C 1019.5 hPa Calm     85% 0 mm 0 W/m2
02:18 -18.5 °C -20.4 °C 1019.5 hPa Calm     85% 0 mm 0 W/m2
02:24 -18.6 °C -20.4 °C 1019.5 hPa Calm     85% 0 mm 0 W/m2
02:30 -18.6 °C -20.5 °C 1019.5 hPa Calm     85% 0 mm 0 W/m2
02:36 -18.7 °C -20.6 °C 1019.5 hPa Calm     85% 0 mm 0 W/m2
02:42 -18.7 °C -20.6 °C 1019.5 hPa Calm     85% 0 mm 0 W/m2
02:48 -18.8 °C -20.7 °C 1019.5 hPa Calm     85% 0 mm 0 W/m2
02:53 -18.8 °C -20.7 °C 1019.5 hPa Calm     85% 0 mm 0 W/m2
03:00 -18.8 °C -20.7 °C 1019.2 hPa Calm     85% 0 mm 0 W/m2
03:06 -18.9 °C -20.8 °C 1019.2 hPa Calm     85% 0 mm 0 W/m2
03:12 -19.1 °C -20.9 °C 1019.2 hPa Calm     85% 0 mm 0 W/m2
03:18 -19.1 °C -21 °C 1019.2 hPa Calm     85% 0 mm 0 W/m2
03:24 -19.2 °C -21.1 °C 1019.2 hPa Calm     85% 0 mm 0 W/m2
03:29 -19.2 °C -21.1 °C 1019.2 hPa Calm     85% 0 mm 0 W/m2
03:36 -19.3 °C -21.2 °C 1018.8 hPa Calm     85% 0 mm 0 W/m2
03:42 -19.4 °C -21.3 °C 1018.8 hPa Calm     85% 0 mm 0 W/m2
03:48 -19.5 °C -21.4 °C 1018.8 hPa Calm     85% 0 mm 0 W/m2
03:54 -19.6 °C -21.5 °C 1018.8 hPa Calm     85% 0 mm 0 W/m2
03:59 -19.7 °C -21.7 °C 1018.8 hPa Calm     84% 0 mm 0 W/m2
04:05 -19.7 °C -21.6 °C 1018.5 hPa Calm     85% 0 mm 0 W/m2
04:12 -19.8 °C -21.7 °C 1018.5 hPa Calm     85% 0 mm 0 W/m2
04:18 -19.8 °C -21.7 °C 1018.5 hPa Calm     85% 0 mm 0 W/m2
04:24 -19.9 °C -21.9 °C 1018.5 hPa Calm     84% 0 mm 0 W/m2
04:30 -20.1 °C -22.1 °C 1018.5 hPa Calm     84% 0 mm 0 W/m2
04:35 -20.1 °C -22.1 °C 1018.5 hPa Calm     84% 0 mm 0 W/m2
04:42 -20.2 °C -22.2 °C 1018.5 hPa Calm     84% 0 mm 0 W/m2
04:48 -20.3 °C -22.3 °C 1018.5 hPa Calm     84% 0 mm 0 W/m2
04:53 -20.3 °C -22.3 °C 1018.5 hPa Calm     84% 0 mm 0 W/m2
04:59 -20.4 °C -22.4 °C 1018.5 hPa Calm     84% 0 mm 0 W/m2
05:05 -20.5 °C -22.5 °C 1018.5 hPa Calm     84% 0 mm 0 W/m2
05:12 -20.6 °C -22.6 °C 1018.5 hPa Calm     84% 0 mm 0 W/m2
05:18 -20.6 °C -22.6 °C 1018.2 hPa Calm     84% 0 mm 0 W/m2
05:24 -20.7 °C -22.7 °C 1018.2 hPa Calm     84% 0 mm 0 W/m2
05:29 -20.7 °C -22.7 °C 1018.2 hPa Calm     84% 0 mm 0 W/m2
05:36 -20.8 °C -22.8 °C 1018.2 hPa Calm     84% 0 mm 0 W/m2
05:42 -20.8 °C -22.8 °C 1018.2 hPa Calm     84% 0 mm 0 W/m2
05:48 -20.9 °C -22.9 °C 1018.2 hPa Calm     84% 0 mm 0 W/m2
05:53 -20.9 °C -22.9 °C 1018.2 hPa Calm     84% 0 mm 0 W/m2
06:00 -20.9 °C -22.9 °C 1018.2 hPa Calm     84% 0 mm 0 W/m2
06:06 -21 °C -23 °C 1018.2 hPa Calm     84% 0 mm 0 W/m2
06:12 -21.1 °C -23.1 °C 1018.2 hPa Calm     84% 0 mm 0 W/m2
06:18 -21.1 °C -23.1 °C 1018.2 hPa Calm     84% 0 mm 0 W/m2
06:23 -21.2 °C -23.2 °C 1018.2 hPa Calm     84% 0 mm 0 W/m2
06:30 -21.2 °C -23.2 °C 1018.2 hPa Calm     84% 0 mm 0 W/m2
06:36 -21.3 °C -23.3 °C 1018.2 hPa Calm     84% 0 mm 0 W/m2
06:42 -21.3 °C -23.3 °C 1018.2 hPa Calm     84% 0 mm 0 W/m2
06:48 -21.3 °C -23.4 °C 1018.2 hPa Calm     83% 0 mm 0 W/m2
06:53 -21.4 °C -23.4 °C 1017.8 hPa Calm     84% 0 mm 0 W/m2
06:59 -21.4 °C -23.4 °C 1018.2 hPa Calm     84% 0 mm 0 W/m2
07:05 -21.4 °C -23.6 °C 1018.2 hPa Calm     83% 0 mm 0 W/m2
07:12 -21.4 °C -23.6 °C 1018.2 hPa Calm     83% 0 mm 0 W/m2
07:18 -21.4 °C -23.4 °C 1018.2 hPa Calm     84% 0 mm 0 W/m2
07:24 -21.3 °C -23.3 °C 1017.8 hPa Calm     84% 0 mm 0 W/m2
07:30 -21.2 °C -23.2 °C 1017.8 hPa Calm     84% 0 mm 0 W/m2
07:35 -21.1 °C -23.1 °C 1017.8 hPa Calm     84% 0 mm 5 W/m2
07:42 -20.9 °C -22.9 °C 1018.2 hPa Calm     84% 0 mm 9 W/m2
07:48 -20.7 °C -22.7 °C 1018.2 hPa Calm     84% 0 mm 11 W/m2
07:54 -20.3 °C -22.2 °C 1018.2 hPa Calm     85% 0 mm 14 W/m2
08:00 -19.6 °C -21.5 °C 1017.8 hPa Calm   1.6 km/h 85% 0 mm 18 W/m2
08:06 -19 °C -20.9 °C 1017.8 hPa Calm   1.6 km/h 85% 0 mm 23 W/m2
08:12 -18.5 °C -20.3 °C 1017.8 hPa Calm     86% 0 mm 28 W/m2
08:18 -18.1 °C -19.8 °C 1017.8 hPa Calm     86% 0 mm 33 W/m2
08:24 -17.7 °C -19.5 °C 1017.8 hPa Calm     86% 0 mm 35 W/m2
08:30 -17.4 °C -19.2 °C 1018.2 hPa Calm     86% 0 mm 42 W/m2
08:36 -17 °C -18.8 °C 1018.2 hPa Calm     86% 0 mm 47 W/m2
08:42 -16.6 °C -18.3 °C 1018.2 hPa Calm     86% 0 mm 56 W/m2
08:48 -15.9 °C -17.6 °C 1018.2 hPa Calm     87% 0 mm 62 W/m2
08:54 -15.3 °C -17 °C 1018.2 hPa Calm     87% 0 mm 72 W/m2
08:59 -14.8 °C -16.5 °C 1018.2 hPa Calm     87% 0 mm 76 W/m2
09:06 -14.4 °C -16.1 °C 1018.2 hPa Calm     87% 0 mm 79 W/m2
09:12 -13.7 °C -15.2 °C 1018.2 hPa Calm     88% 0 mm 90 W/m2
09:18 -12.9 °C -14.4 °C 1018.2 hPa Calm     88% 0 mm 97 W/m2
09:24 -12.2 °C -13.6 °C 1018.2 hPa Calm   3.2 km/h 89% 0 mm 102 W/m2
09:30 -11.4 °C -12.8 °C 1018.2 hPa WSW 1.6 km/h 1.6 km/h 89% 0 mm 111 W/m2
09:35 -10.6 °C -12.1 °C 1018.2 hPa West 3.2 km/h 6.4 km/h 89% 0 mm 125 W/m2
09:42 -10.1 °C -11.7 °C 1018.2 hPa WSW 3.2 km/h 3.2 km/h 88% 0 mm 148 W/m2
09:48 -9.6 °C -11.3 °C 1018.2 hPa West 3.2 km/h 4.8 km/h 87% 0 mm 132 W/m2
09:54 -9.2 °C -11 °C 1018.2 hPa SW 4.8 km/h 8 km/h 87% 0 mm 156 W/m2
09:59 -8.9 °C -10.8 °C 1018.2 hPa West 6.4 km/h 9.7 km/h 86% 0 mm 169 W/m2
10:05 -8.6 °C -10.7 °C 1018.2 hPa West 6.4 km/h 11.3 km/h 85% 0 mm 174 W/m2
10:12 -8.4 °C -10.4 °C 1018.2 hPa WSW 6.4 km/h 6.4 km/h 85% 0 mm 162 W/m2
10:18 -8.2 °C -10.3 °C 1018.5 hPa SW 6.4 km/h 12.9 km/h 85% 0 mm 174 W/m2
10:24 -8.1 °C -10.3 °C 1018.5 hPa WSW 8 km/h 9.7 km/h 84% 0 mm 163 W/m2
10:29 -8 °C -10.2 °C 1018.2 hPa SW 8 km/h 8 km/h 84% 0 mm 186 W/m2
10:36 -7.9 °C -10.3 °C 1018.2 hPa West 8 km/h 12.9 km/h 83% 0 mm 199 W/m2
10:42 -7.8 °C -10 °C 1017.8 hPa WSW 8 km/h 8 km/h 84% 0 mm 172 W/m2
10:48 -7.7 °C -10.1 °C 1017.8 hPa West 8 km/h 8 km/h 83% 0 mm 135 W/m2
10:53 -7.8 °C -10.2 °C 1017.8 hPa WSW 6.4 km/h 11.3 km/h 83% 0 mm 121 W/m2
10:59 -7.6 °C -9.8 °C 1017.8 hPa WSW 4.8 km/h 8 km/h 84% 0 mm 223 W/m2
11:06 -7.4 °C -9.7 °C 1017.8 hPa WNW 6.4 km/h 8 km/h 84% 0 mm 237 W/m2
11:12 -7.3 °C -9.7 °C 1018.2 hPa West 8 km/h 11.3 km/h 83% 0 mm 308 W/m2
11:18 -7.2 °C -9.6 °C 1017.8 hPa WSW 6.4 km/h 11.3 km/h 83% 0 mm 225 W/m2
11:23 -7.2 °C -9.6 °C 1017.8 hPa WSW 6.4 km/h 11.3 km/h 83% 0 mm 330 W/m2
11:30 -7.1 °C -9.6 °C 1017.8 hPa SSW 8 km/h 9.7 km/h 82% 0 mm 272 W/m2
11:35 -7.1 °C -9.6 °C 1017.8 hPa West 8 km/h 9.7 km/h 82% 0 mm 253 W/m2
11:42 -7.1 °C -9.6 °C 1017.5 hPa West 8 km/h 16.1 km/h 82% 0 mm 213 W/m2
11:48 -6.9 °C -9.3 °C 1017.5 hPa West 6.4 km/h 16.1 km/h 83% 0 mm 234 W/m2
11:53 -6.8 °C -9.4 °C 1017.5 hPa SW 4.8 km/h 9.7 km/h 82% 0 mm 223 W/m2
12:00 -6.8 °C -9.4 °C 1017.5 hPa WSW 6.4 km/h 17.7 km/h 82% 0 mm 220 W/m2
12:06 -6.9 °C -9.6 °C 1017.5 hPa West 9.7 km/h 17.7 km/h 81% 0 mm 237 W/m2
12:12 -6.8 °C -9.6 °C 1017.5 hPa WNW 9.7 km/h 9.7 km/h 81% 0 mm 221 W/m2
12:18 -6.7 °C -9.3 °C 1017.2 hPa WSW 6.4 km/h 9.7 km/h 82% 0 mm 227 W/m2
12:23 -6.7 °C -9.4 °C 1017.2 hPa West 8 km/h 8 km/h 81% 0 mm 223 W/m2
12:30 -6.7 °C -9.4 °C 1016.8 hPa NW 9.7 km/h 9.7 km/h 81% 0 mm 202 W/m2
12:36 -6.7 °C -9.4 °C 1016.8 hPa SW 9.7 km/h 16.1 km/h 81% 0 mm 225 W/m2
12:42 -6.6 °C -9.3 °C 1016.8 hPa WSW 9.7 km/h 16.1 km/h 81% 0 mm 220 W/m2
12:48 -6.5 °C -9.2 °C 1016.8 hPa West 9.7 km/h 16.1 km/h 81% 0 mm 230 W/m2
12:54 -6.4 °C -9.2 °C 1016.8 hPa SW 8 km/h 11.3 km/h 81% 0 mm 221 W/m2
13:00 -6.4 °C -8.9 °C 1016.8 hPa WSW 6.4 km/h 6.4 km/h 82% 0 mm 241 W/m2
13:06 -6.3 °C -9 °C 1016.5 hPa SW 6.4 km/h 9.7 km/h 81% 0 mm 234 W/m2
13:12 -6.2 °C -8.9 °C 1016.5 hPa SW 8 km/h 11.3 km/h 81% 0 mm 225 W/m2
13:20 -6.1 °C -8.8 °C 1016.5 hPa SW 6.4 km/h 14.5 km/h 81% 0 mm 234 W/m2
13:25 -6.2 °C -8.9 °C 1016.8 hPa SW 8 km/h 14.5 km/h 81% 0 mm 218 W/m2
13:32 -6.1 °C -8.8 °C 1016.5 hPa WSW 8 km/h 9.7 km/h 81% 0 mm 207 W/m2
13:38 -6.1 °C -8.9 °C 1016.5 hPa WSW 8 km/h 11.3 km/h 80% 0 mm 206 W/m2
13:44 -5.9 °C -8.7 °C 1016.5 hPa SW 6.4 km/h 8 km/h 81% 0 mm 179 W/m2
13:49 -5.9 °C -8.8 °C 1016.5 hPa WNW 6.4 km/h 6.4 km/h 80% 0 mm 158 W/m2
13:56 -5.9 °C -8.8 °C 1016.5 hPa SW 6.4 km/h 12.9 km/h 80% 0 mm 151 W/m2
14:02 -5.9 °C -8.8 °C 1016.5 hPa West 6.4 km/h 8 km/h 80% 0 mm 134 W/m2
14:08 -6 °C -8.9 °C 1016.5 hPa West 6.4 km/h 14.5 km/h 80% 0 mm 118 W/m2
14:14 -5.9 °C -8.8 °C 1016.5 hPa WSW 6.4 km/h 6.4 km/h 80% 0 mm 111 W/m2
14:20 -5.9 °C -8.8 °C 1016.5 hPa SW 6.4 km/h 6.4 km/h 80% 0 mm 111 W/m2
14:26 -6.1 °C -8.9 °C 1016.1 hPa West 8 km/h 9.7 km/h 80% 0 mm 109 W/m2
14:38 -6.1 °C -9 °C 1016.1 hPa WSW 9.7 km/h 17.7 km/h 80% 0 mm 105 W/m2
14:44 -6.1 °C -8.9 °C 1016.1 hPa SW 9.7 km/h 12.9 km/h 80% 0 mm 102 W/m2
14:49 -6.1 °C -8.9 °C 1016.1 hPa WSW 6.4 km/h 6.4 km/h 80% 0 mm 97 W/m2
14:55 -5.9 °C -8.8 °C 1016.5 hPa WSW 6.4 km/h 11.3 km/h 80% 0 mm 93 W/m2
15:02 -6 °C -8.9 °C 1016.5 hPa WNW 6.4 km/h 6.4 km/h 80% 0 mm 81 W/m2
15:08 -6 °C -8.6 °C 1016.5 hPa West 4.8 km/h 11.3 km/h 82% 0 mm 70 W/m2
15:14 -6 °C -8.9 °C 1016.5 hPa West 6.4 km/h 19.3 km/h 80% 0 mm 67 W/m2
15:20 -6.1 °C -8.8 °C 1016.5 hPa SW 8 km/h 8 km/h 81% 0 mm 58 W/m2
15:25 -6.1 °C -8.9 °C 1016.5 hPa WSW 8 km/h 9.7 km/h 80% 0 mm 56 W/m2
15:32 -6.1 °C -8.9 °C 1016.5 hPa WSW 8 km/h 11.3 km/h 80% 0 mm 51 W/m2
15:38 -6.1 °C -9 °C 1016.5 hPa West 8 km/h 11.3 km/h 80% 0 mm 47 W/m2
15:43 -6.1 °C -9 °C 1016.5 hPa WSW 8 km/h 8 km/h 80% 0 mm 42 W/m2
15:50 -6.1 °C -8.8 °C 1016.5 hPa WSW 6.4 km/h 6.4 km/h 81% 0 mm 39 W/m2
15:56 -6.1 °C -8.8 °C 1016.5 hPa SW 4.8 km/h 8 km/h 81% 0 mm 33 W/m2
16:02 -6.1 °C -8.8 °C 1016.5 hPa WSW 6.4 km/h 6.4 km/h 81% 0 mm 33 W/m2
16:08 -6.1 °C -8.8 °C 1016.5 hPa WSW 6.4 km/h 14.5 km/h 81% 0 mm 30 W/m2
16:14 -6.1 °C -8.8 °C 1016.5 hPa SW 4.8 km/h 11.3 km/h 81% 0 mm 26 W/m2
16:20 -6.1 °C -8.8 °C 1016.5 hPa WSW 4.8 km/h 4.8 km/h 81% 0 mm 25 W/m2
16:25 -6.1 °C -8.8 °C 1016.5 hPa West 4.8 km/h 6.4 km/h 81% 0 mm 18 W/m2
16:32 -6.1 °C -8.8 °C 1016.5 hPa SW 3.2 km/h 12.9 km/h 81% 0 mm 14 W/m2
16:38 -6.1 °C -8.8 °C 1016.5 hPa West 3.2 km/h 12.9 km/h 81% 0 mm 11 W/m2
16:44 -6.1 °C -8.8 °C 1016.5 hPa West 3.2 km/h 9.7 km/h 81% 0 mm 9 W/m2
16:50 -6 °C -8.7 °C 1016.5 hPa West 4.8 km/h 8 km/h 81% 0 mm 5 W/m2
16:55 -6 °C -8.7 °C 1016.5 hPa WSW 4.8 km/h 8 km/h 81% 0 mm 0 W/m2
17:02 -5.9 °C -8.7 °C 1016.1 hPa WSW 4.8 km/h 8 km/h 81% 0 mm 0 W/m2
17:08 -5.9 °C -8.7 °C 1016.1 hPa WSW 4.8 km/h 8 km/h 81% 0 mm 0 W/m2
17:13 -5.9 °C -8.7 °C 1016.1 hPa WSW 6.4 km/h 8 km/h 81% 0 mm 0 W/m2
17:20 -5.9 °C -8.7 °C 1016.1 hPa SW 4.8 km/h 9.7 km/h 81% 0 mm 0 W/m2
17:25 -5.9 °C -8.8 °C 1016.1 hPa NW 6.4 km/h 9.7 km/h 80% 0 mm 0 W/m2
17:32 -5.9 °C -8.7 °C 1016.1 hPa WSW 4.8 km/h 6.4 km/h 81% 0 mm 0 W/m2
17:38 -5.9 °C -8.7 °C 1016.1 hPa West 4.8 km/h 14.5 km/h 81% 0 mm 0 W/m2
17:43 -5.9 °C -8.8 °C 1016.1 hPa WSW 6.4 km/h 11.3 km/h 80% 0 mm 0 W/m2
17:50 -6 °C -8.9 °C 1016.1 hPa WNW 6.4 km/h 8 km/h 80% 0 mm 0 W/m2
17:56 -6 °C -8.7 °C 1016.5 hPa West 4.8 km/h 8 km/h 81% 0 mm 0 W/m2
18:04 -6.1 °C -8.8 °C 1016.5 hPa West 3.2 km/h 8 km/h 81% 0 mm 0 W/m2
18:10 -6.1 °C -8.8 °C 1016.5 hPa SW 3.2 km/h 6.4 km/h 81% 0 mm 0 W/m2
18:16 -6.1 °C -8.8 °C 1016.8 hPa WSW 3.2 km/h 6.4 km/h 81% 0 mm 0 W/m2
18:22 -6.1 °C -8.8 °C 1016.8 hPa SW 3.2 km/h 4.8 km/h 81% 0 mm 0 W/m2
18:29 -6.1 °C -8.8 °C 1016.8 hPa West 4.8 km/h 4.8 km/h 81% 0 mm 0 W/m2
18:35 -6.1 °C -8.8 °C 1016.8 hPa WSW 4.8 km/h 8 km/h 81% 0 mm 0 W/m2
18:42 -6.1 °C -8.8 °C 1016.8 hPa WNW 4.8 km/h 4.8 km/h 81% 0 mm 0 W/m2
18:48 -6.1 °C -8.8 °C 1016.8 hPa West 3.2 km/h 8 km/h 81% 0 mm 0 W/m2
18:54 -6.1 °C -8.8 °C 1016.8 hPa SSW 4.8 km/h 8 km/h 81% 0 mm 0 W/m2
19:00 -6.1 °C -8.8 °C 1016.8 hPa WSW 3.2 km/h 11.3 km/h 81% 0 mm 0 W/m2
19:06 -6.1 °C -8.8 °C 1016.8 hPa WSW 4.8 km/h 11.3 km/h 81% 0 mm 0 W/m2
19:12 -6.1 °C -8.8 °C 1016.8 hPa WSW 3.2 km/h 9.7 km/h 81% 0 mm 0 W/m2
19:18 -6.1 °C -8.8 °C 1016.8 hPa WSW 4.8 km/h 9.7 km/h 81% 0 mm 0 W/m2
19:23 -6.1 °C -8.8 °C 1016.8 hPa SW 4.8 km/h 4.8 km/h 81% 0 mm 0 W/m2
19:30 -6.1 °C -8.8 °C 1016.8 hPa West 4.8 km/h 4.8 km/h 81% 0 mm 0 W/m2
19:36 -6.1 °C -8.8 °C 1017.2 hPa WSW 3.2 km/h 4.8 km/h 81% 0 mm 0 W/m2
19:42 -6.1 °C -8.8 °C 1016.8 hPa SW 3.2 km/h 6.4 km/h 81% 0 mm 0 W/m2
19:48 -6.1 °C -8.8 °C 1016.8 hPa SW 4.8 km/h 9.7 km/h 81% 0 mm 0 W/m2
19:53 -6.1 °C -8.8 °C 1016.8 hPa SW 4.8 km/h 8 km/h 81% 0 mm 0 W/m2
19:59 -6.1 °C -8.8 °C 1016.8 hPa SW 3.2 km/h 4.8 km/h 81% 0 mm 0 W/m2
20:05 -6.1 °C -8.8 °C 1016.8 hPa SW 3.2 km/h 8 km/h 81% 0 mm 0 W/m2
20:12 -6.2 °C -8.9 °C 1016.8 hPa SW 4.8 km/h 4.8 km/h 81% 0 mm 0 W/m2
20:18 -6.2 °C -8.9 °C 1016.8 hPa WSW 1.6 km/h 8 km/h 81% 0 mm 0 W/m2
20:24 -6.2 °C -8.9 °C 1016.8 hPa SSW 3.2 km/h 4.8 km/h 81% 0 mm 0 W/m2
20:30 -6.2 °C -8.9 °C 1016.8 hPa WSW 3.2 km/h 3.2 km/h 81% 0 mm 0 W/m2
20:35 -6.2 °C -8.9 °C 1016.8 hPa SW 3.2 km/h 3.2 km/h 81% 0 mm 0 W/m2
20:42 -6.3 °C -9 °C 1016.8 hPa SSW 3.2 km/h 3.2 km/h 81% 0 mm 0 W/m2
20:48 -6.3 °C -9.1 °C 1016.5 hPa SW 3.2 km/h 4.8 km/h 81% 0 mm 0 W/m2
20:54 -6.4 °C -9.1 °C 1016.5 hPa SW 1.6 km/h 3.2 km/h 81% 0 mm 0 W/m2
21:00 -6.4 °C -9.2 °C 1016.5 hPa Calm   1.6 km/h 81% 0 mm 0 W/m2
21:06 -6.5 °C -9.1 °C 1016.1 hPa Calm   1.6 km/h 82% 0 mm 0 W/m2
21:12 -6.6 °C -9.1 °C 1016.1 hPa Calm     82% 0 mm 0 W/m2
21:18 -6.6 °C -9.2 °C 1016.1 hPa Calm     82% 0 mm 0 W/m2
21:24 -6.7 °C -9.2 °C 1016.1 hPa SW 1.6 km/h 1.6 km/h 82% 0 mm 0 W/m2
21:30 -6.8 °C -9.3 °C 1016.1 hPa Calm     82% 0 mm 0 W/m2
21:36 -6.9 °C -9.4 °C 1016.1 hPa Calm     82% 0 mm 0 W/m2
21:42 -7.1 °C -9.6 °C 1016.1 hPa Calm     82% 0 mm 0 W/m2
21:48 -7.3 °C -9.7 °C 1016.1 hPa Calm   1.6 km/h 83% 0 mm 0 W/m2
21:53 -7.5 °C -9.9 °C 1015.8 hPa Calm     83% 0 mm 0 W/m2
22:00 -7.7 °C -10.1 °C 1015.8 hPa Calm     83% 0 mm 0 W/m2
22:06 -8.1 °C -10.5 °C 1015.8 hPa Calm     83% 0 mm 0 W/m2
22:12 -8.3 °C -10.6 °C 1015.8 hPa Calm     84% 0 mm 0 W/m2
22:18 -8.4 °C -10.7 °C 1015.8 hPa Calm     84% 0 mm 0 W/m2
22:24 -8.6 °C -10.8 °C 1015.8 hPa Calm     84% 0 mm 0 W/m2
22:29 -8.6 °C -10.7 °C 1015.8 hPa Calm     85% 0 mm 0 W/m2
22:36 -8.7 °C -10.8 °C 1015.8 hPa Calm     85% 0 mm 0 W/m2
22:42 -8.8 °C -10.9 °C 1015.8 hPa Calm     85% 0 mm 0 W/m2
22:48 -8.9 °C -11 °C 1015.8 hPa Calm     85% 0 mm 0 W/m2
22:54 -9.1 °C -11.1 °C 1015.8 hPa Calm     85% 0 mm 0 W/m2
22:59 -9.2 °C -11.3 °C 1015.5 hPa Calm     85% 0 mm 0 W/m2
23:05 -9.4 °C -11.3 °C 1015.5 hPa Calm     86% 0 mm 0 W/m2
23:12 -9.7 °C -11.6 °C 1015.5 hPa Calm     86% 0 mm 0 W/m2
23:18 -9.8 °C -11.7 °C 1015.5 hPa Calm     86% 0 mm 0 W/m2
23:24 -9.8 °C -11.7 °C 1015.5 hPa Calm     86% 0 mm 0 W/m2
23:30 -9.9 °C -11.8 °C 1015.5 hPa Calm     86% 0 mm 0 W/m2
23:35 -9.9 °C -11.7 °C 1015.5 hPa Calm     87% 0 mm 0 W/m2
23:42 -9.8 °C -11.6 °C 1015.5 hPa Calm     87% 0 mm 0 W/m2
23:48 -9.6 °C -11.3 °C 1015.5 hPa Calm     87% 0 mm 0 W/m2
23:54 -9.3 °C -10.9 °C 1015.5 hPa Calm     88% 0 mm 0 W/m2
Country Meadow, Clay, NY, USA
Compliments of Weather Underground - 2 mb